createdAt,value
2023-02-04T00:00:23.296Z,64.15
2023-02-04T00:02:50.804Z,64.79
2023-02-04T00:05:18.631Z,64.85
2023-02-04T00:07:45.663Z,65.13
2023-02-04T00:10:12.373Z,65.38
2023-02-04T00:12:39.113Z,65.26
2023-02-04T00:15:06.512Z,65.37
2023-02-04T00:17:33.291Z,66.10
2023-02-04T00:20:00.123Z,66.17
2023-02-04T00:22:29.045Z,67.11
2023-02-04T00:24:56.006Z,67.47
2023-02-04T00:27:22.925Z,67.87
2023-02-04T00:29:49.863Z,68.42
2023-02-04T00:32:16.773Z,68.87
2023-02-04T00:34:43.665Z,68.86
2023-02-04T00:37:10.507Z,68.34
2023-02-04T00:39:38.003Z,68.34
2023-02-04T00:42:06.363Z,68.33
2023-02-04T00:44:33.356Z,69.02
2023-02-04T00:47:00.173Z,69.68
2023-02-04T00:49:26.903Z,71.74
2023-02-04T00:51:53.950Z,72.20
2023-02-04T00:54:20.717Z,72.69
2023-02-04T00:56:47.400Z,73.41
2023-02-04T00:59:14.421Z,73.44
2023-02-04T01:01:41.402Z,73.72
2023-02-04T01:04:08.168Z,73.42
2023-02-04T01:06:35.169Z,73.85
2023-02-04T01:09:02.190Z,74.03
2023-02-04T01:11:30.299Z,73.55
2023-02-04T01:13:57.328Z,73.09
2023-02-04T01:16:24.149Z,73.43
2023-02-04T01:21:18.302Z,74.72
2023-02-04T01:23:45.140Z,75.33
2023-02-04T01:26:12.027Z,75.00
2023-02-04T01:28:38.799Z,74.75
2023-02-04T01:31:05.790Z,74.54
2023-02-04T01:33:33.075Z,74.18
2023-02-04T01:35:59.826Z,74.06
2023-02-04T01:38:26.521Z,73.73
2023-02-04T01:40:53.235Z,73.97
2023-02-04T01:43:23.253Z,75.04
2023-02-04T01:45:51.066Z,74.80
2023-02-04T01:48:22.637Z,74.83
2023-02-04T01:50:51.340Z,75.07
2023-02-04T01:53:24.900Z,75.34
2023-02-04T01:55:52.444Z,75.53
2023-02-04T01:58:19.715Z,74.89
2023-02-04T02:00:46.713Z,74.97
2023-02-04T02:03:13.456Z,74.25
2023-02-04T02:05:42.274Z,74.15
2023-02-04T02:08:09.376Z,73.99
2023-02-04T02:10:39.107Z,73.73
2023-02-04T02:13:08.903Z,73.96
2023-02-04T02:15:39.030Z,73.83
2023-02-04T02:18:06.112Z,72.96
2023-02-04T02:20:33.272Z,73.22
2023-02-04T02:23:23.862Z,73.00
2023-02-04T02:25:51.166Z,72.74
2023-02-04T02:28:20.597Z,73.36
2023-02-04T02:30:49.195Z,73.60
2023-02-04T02:33:18.142Z,73.42
2023-02-04T02:35:48.428Z,73.17
2023-02-04T02:38:19.448Z,72.77
2023-02-04T02:40:47.368Z,73.36
2023-02-04T02:43:16.567Z,73.24
2023-02-04T02:45:43.381Z,72.94
2023-02-04T02:48:10.982Z,73.42
2023-02-04T02:50:37.722Z,73.60
2023-02-04T02:53:06.284Z,74.15
2023-02-04T02:55:33.141Z,73.74
2023-02-04T02:58:03.698Z,73.55
2023-02-04T03:00:31.205Z,73.37
2023-02-04T03:03:22.257Z,73.57
2023-02-04T03:05:52.189Z,73.70
2023-02-04T03:08:19.576Z,73.80
2023-02-04T03:10:46.543Z,73.97
2023-02-04T03:13:14.448Z,73.79
2023-02-04T03:15:41.895Z,73.32
2023-02-04T03:18:09.047Z,73.22
2023-02-04T03:20:36.456Z,73.39
2023-02-04T03:23:03.444Z,72.74
2023-02-04T03:25:30.312Z,72.67
2023-02-04T03:27:58.895Z,73.12
2023-02-04T03:30:26.719Z,72.93
2023-02-04T03:32:54.238Z,73.28
2023-02-04T03:35:21.372Z,73.26
2023-02-04T03:37:48.102Z,73.80
2023-02-04T03:40:15.541Z,73.52
2023-02-04T03:42:42.287Z,73.58
2023-02-04T03:45:09.243Z,73.28
2023-02-04T03:47:35.976Z,73.57
2023-02-04T03:50:02.842Z,73.90
2023-02-04T03:52:29.587Z,73.65
2023-02-04T03:54:56.393Z,73.64
2023-02-04T03:57:23.125Z,73.05
2023-02-04T03:59:49.821Z,73.14
2023-02-04T04:02:16.616Z,73.39
2023-02-04T04:04:43.399Z,72.96
2023-02-04T04:07:10.173Z,73.18
2023-02-04T04:09:36.886Z,72.29
2023-02-04T04:12:04.637Z,72.40
2023-02-04T04:14:31.447Z,72.11
2023-02-04T04:16:58.242Z,71.80
2023-02-04T04:19:24.993Z,71.42
2023-02-04T04:21:51.835Z,71.45
2023-02-04T04:24:18.554Z,71.82
2023-02-04T04:26:45.369Z,71.98
2023-02-04T04:29:12.132Z,71.79
2023-02-04T04:31:39.202Z,71.31
2023-02-04T04:34:06.180Z,71.35
2023-02-04T04:36:32.966Z,71.50
2023-02-04T04:38:59.859Z,71.59
2023-02-04T04:41:26.649Z,71.86
2023-02-04T04:43:53.450Z,71.76
2023-02-04T04:46:20.309Z,71.40
2023-02-04T04:48:47.180Z,71.80
2023-02-04T04:51:14.093Z,71.42
2023-02-04T04:53:40.925Z,72.12
2023-02-04T04:56:07.889Z,71.81
2023-02-04T04:58:34.677Z,72.30
2023-02-04T05:01:01.449Z,72.22
2023-02-04T05:03:28.322Z,72.58
2023-02-04T05:05:54.989Z,72.47
2023-02-04T05:08:21.759Z,72.82
2023-02-04T05:10:49.299Z,73.24
2023-02-04T05:13:16.226Z,73.53
2023-02-04T05:15:43.123Z,73.60
2023-02-04T05:18:09.930Z,73.48
2023-02-04T05:20:36.829Z,72.14
2023-02-04T05:23:05.521Z,70.78
2023-02-04T05:25:32.539Z,69.59
2023-02-04T05:27:59.326Z,67.37
2023-02-04T05:30:26.192Z,66.17
2023-02-04T05:32:53.062Z,65.79
2023-02-04T05:35:20.188Z,67.18
2023-02-04T05:37:46.931Z,67.42
2023-02-04T05:40:14.276Z,65.55
2023-02-04T05:42:41.960Z,66.39
2023-02-04T05:45:16.760Z,66.11
2023-02-04T05:47:43.569Z,63.97
2023-02-04T05:50:10.502Z,67.42
2023-02-04T05:52:37.350Z,67.80
2023-02-04T05:55:04.463Z,67.21
2023-02-04T05:57:31.231Z,67.57
2023-02-04T05:59:57.953Z,66.92
2023-02-04T06:02:25.260Z,66.22
2023-02-04T06:04:51.954Z,65.07
2023-02-04T06:07:18.691Z,64.00
2023-02-04T06:09:45.359Z,61.97
2023-02-04T06:12:12.184Z,60.48
2023-02-04T06:14:39.042Z,60.16
2023-02-04T06:17:05.735Z,59.56
2023-02-04T06:19:32.498Z,59.14
2023-02-04T06:21:59.248Z,59.40
2023-02-04T06:24:25.990Z,60.29
2023-02-04T06:26:52.710Z,60.85
2023-02-04T06:29:19.633Z,60.09
2023-02-04T06:31:47.247Z,59.64
2023-02-04T06:34:14.129Z,58.78
2023-02-04T06:36:40.931Z,57.93
2023-02-04T06:39:07.660Z,57.28
2023-02-04T06:41:34.367Z,56.81
2023-02-04T06:44:01.272Z,57.23
2023-02-04T06:46:28.048Z,57.62
2023-02-04T06:48:54.824Z,56.95
2023-02-04T06:51:21.534Z,56.93
2023-02-04T06:53:48.323Z,56.99
2023-02-04T06:56:15.024Z,57.11
2023-02-04T06:58:41.728Z,56.11
2023-02-04T07:01:08.694Z,55.95
2023-02-04T07:03:35.541Z,55.30
2023-02-04T07:06:02.315Z,55.19
2023-02-04T07:08:29.209Z,55.24
2023-02-04T07:10:55.989Z,55.43
2023-02-04T07:13:22.725Z,55.44
2023-02-04T07:15:49.913Z,55.32
2023-02-04T07:18:16.824Z,55.23
2023-02-04T07:20:43.566Z,55.27
2023-02-04T07:23:10.315Z,54.29
2023-02-04T07:25:38.965Z,53.92
2023-02-04T07:28:06.120Z,53.44
2023-02-04T07:30:33.494Z,53.63
2023-02-04T07:33:00.512Z,53.52
2023-02-04T07:35:27.234Z,53.72
2023-02-04T07:37:54.024Z,54.25
2023-02-04T07:40:21.932Z,53.74
2023-02-04T07:42:48.652Z,53.44
2023-02-04T07:45:18.213Z,52.34
2023-02-04T07:47:44.968Z,51.90
2023-02-04T07:50:11.967Z,51.39
2023-02-04T07:52:38.857Z,50.96
2023-02-04T07:55:06.483Z,50.28
2023-02-04T07:57:33.513Z,49.70
2023-02-04T08:00:00.334Z,49.82
2023-02-04T08:02:27.342Z,50.80
2023-02-04T08:04:54.063Z,51.33
2023-02-04T08:07:20.798Z,52.21
2023-02-04T08:09:47.506Z,52.76
2023-02-04T08:12:14.200Z,52.75
2023-02-04T08:14:40.879Z,53.83
2023-02-04T08:17:07.631Z,53.65
2023-02-04T08:19:34.317Z,54.41
2023-02-04T08:22:01.218Z,54.32
2023-02-04T08:24:28.026Z,54.88
2023-02-04T08:26:54.708Z,54.43
2023-02-04T08:29:21.430Z,55.04
2023-02-04T08:31:48.241Z,54.58
2023-02-04T08:34:15.028Z,54.29
2023-02-04T08:36:41.754Z,53.98
2023-02-04T08:39:08.514Z,54.56
2023-02-04T08:41:35.278Z,55.33
2023-02-04T08:44:02.113Z,54.94
2023-02-04T08:46:28.851Z,54.97
2023-02-04T08:48:56.020Z,55.19
2023-02-04T08:51:23.049Z,55.14
2023-02-04T08:53:49.787Z,55.23
2023-02-04T08:56:18.011Z,55.05
2023-02-04T08:58:45.263Z,55.13
2023-02-04T09:01:12.456Z,55.19
2023-02-04T09:03:39.679Z,54.48
2023-02-04T09:06:07.249Z,54.82
2023-02-04T09:08:34.258Z,54.88
2023-02-04T09:11:01.053Z,53.87
2023-02-04T09:13:27.795Z,53.48
2023-02-04T09:15:54.571Z,53.73
2023-02-04T09:18:22.565Z,54.49
2023-02-04T09:20:49.655Z,54.37
2023-02-04T09:23:16.527Z,53.21
2023-02-04T09:25:44.982Z,51.91
2023-02-04T09:28:13.147Z,51.94
2023-02-04T09:30:40.912Z,51.83
2023-02-04T09:33:08.361Z,52.56
2023-02-04T09:35:35.500Z,53.57
2023-02-04T09:38:02.419Z,55.04
2023-02-04T09:40:32.151Z,57.00
2023-02-04T09:42:59.975Z,57.96
2023-02-04T09:45:33.691Z,58.23
2023-02-04T09:48:03.451Z,58.83
2023-02-04T09:50:34.838Z,59.98
2023-02-04T09:53:04.793Z,60.55
2023-02-04T09:55:38.037Z,60.73
2023-02-04T09:58:19.638Z,59.37
2023-02-04T10:00:47.835Z,59.28
2023-02-04T10:03:18.996Z,57.44
2023-02-04T10:05:46.903Z,57.79
2023-02-04T10:08:19.021Z,57.47
2023-02-04T10:10:47.160Z,56.52
2023-02-04T10:13:22.330Z,57.26
2023-02-04T10:15:50.314Z,56.32
2023-02-04T10:18:29.377Z,55.90
2023-02-04T10:21:16.281Z,56.43
2023-02-04T10:23:45.842Z,57.42
2023-02-04T10:26:13.469Z,58.02
2023-02-04T10:28:40.896Z,57.67
2023-02-04T10:31:37.310Z,56.99
2023-02-04T10:34:10.998Z,57.38
2023-02-04T10:36:38.518Z,57.98
2023-02-04T10:39:11.729Z,60.22
2023-02-04T10:41:40.213Z,61.89
2023-02-04T10:44:12.449Z,62.89
2023-02-04T10:46:39.488Z,63.84
2023-02-04T10:49:18.503Z,63.68
2023-02-04T10:51:45.756Z,63.94
2023-02-04T10:54:32.169Z,63.83
2023-02-04T10:57:14.458Z,63.93
2023-02-04T10:59:41.679Z,62.08
2023-02-04T11:02:35.271Z,60.36
2023-02-04T11:05:02.493Z,60.34
2023-02-04T11:07:30.499Z,59.09
2023-02-04T11:09:57.920Z,57.79
2023-02-04T11:12:38.725Z,57.49
2023-02-04T11:15:06.405Z,56.41
2023-02-04T11:17:35.283Z,56.70
2023-02-04T11:20:13.678Z,56.44
2023-02-04T11:22:46.392Z,55.86
2023-02-04T11:25:35.841Z,55.94
2023-02-04T11:28:26.374Z,55.83
2023-02-04T11:31:04.025Z,56.38
2023-02-04T11:33:39.675Z,57.63
2023-02-04T11:36:09.839Z,56.30
2023-02-04T11:38:37.358Z,57.18
2023-02-04T11:41:04.580Z,57.20
2023-02-04T11:43:35.627Z,57.41
2023-02-04T11:46:13.160Z,57.69
2023-02-04T11:48:40.207Z,57.62
2023-02-04T11:51:14.794Z,56.72
2023-02-04T11:53:41.965Z,57.43
2023-02-04T11:56:17.979Z,57.69
2023-02-04T11:58:44.987Z,57.61
2023-02-04T12:01:30.018Z,58.88
2023-02-04T12:03:58.935Z,59.10
2023-02-04T12:06:26.732Z,59.87
2023-02-04T12:09:05.150Z,60.29
2023-02-04T12:11:32.789Z,61.49
2023-02-04T12:14:07.981Z,61.41
2023-02-04T12:16:48.724Z,62.63
2023-02-04T12:19:15.632Z,63.57
2023-02-04T12:21:42.496Z,62.50
2023-02-04T12:24:09.884Z,63.40
2023-02-04T12:26:36.843Z,64.50
2023-02-04T12:29:05.730Z,64.24
2023-02-04T12:31:33.328Z,64.43
2023-02-04T12:34:00.907Z,63.33
2023-02-04T12:36:29.851Z,62.71
2023-02-04T12:38:58.950Z,61.43
2023-02-04T12:41:26.077Z,62.06
2023-02-04T12:43:55.121Z,61.92
2023-02-04T12:46:22.179Z,61.37
2023-02-04T12:48:49.203Z,60.89
2023-02-04T12:51:16.269Z,59.61
2023-02-04T12:53:43.121Z,60.24
2023-02-04T12:56:11.266Z,59.31
2023-02-04T12:58:38.253Z,58.77
2023-02-04T13:01:05.291Z,59.04
2023-02-04T13:03:32.670Z,58.94
2023-02-04T13:05:59.746Z,58.70
2023-02-04T13:08:26.564Z,59.04
2023-02-04T13:10:53.735Z,59.39
2023-02-04T13:13:21.740Z,59.87
2023-02-04T13:15:48.748Z,60.02
2023-02-04T13:18:17.414Z,60.11
2023-02-04T13:20:46.103Z,60.83
2023-02-04T13:23:13.525Z,61.09
2023-02-04T13:25:40.909Z,62.03
2023-02-04T13:28:08.001Z,61.81
2023-02-04T13:30:34.968Z,61.75
2023-02-04T13:33:02.002Z,63.13
2023-02-04T13:35:29.057Z,62.08
2023-02-04T13:37:56.631Z,62.89
2023-02-04T13:40:23.662Z,61.52
2023-02-04T13:42:50.663Z,61.91
2023-02-04T13:45:19.129Z,61.88
2023-02-04T13:47:48.056Z,61.21
2023-02-04T13:50:16.554Z,60.92
2023-02-04T13:52:43.474Z,61.74
2023-02-04T13:55:10.737Z,62.04
2023-02-04T13:57:38.034Z,63.21
2023-02-04T14:00:06.945Z,63.20
2023-02-04T14:02:39.346Z,63.33
2023-02-04T14:05:06.882Z,63.17
2023-02-04T14:07:34.215Z,62.80
2023-02-04T14:10:00.974Z,62.90
2023-02-04T14:12:27.700Z,62.84
2023-02-04T14:14:54.386Z,62.98
2023-02-04T14:17:21.257Z,62.97
2023-02-04T14:19:47.978Z,63.20
2023-02-04T14:22:14.766Z,63.55
2023-02-04T14:24:42.883Z,63.38
2023-02-04T14:27:10.413Z,63.87
2023-02-04T14:29:37.179Z,64.12
2023-02-04T14:32:04.440Z,65.50
2023-02-04T14:34:31.212Z,68.70
2023-02-04T14:36:58.039Z,70.18
2023-02-04T14:39:24.800Z,70.46
2023-02-04T14:41:51.519Z,73.27
2023-02-04T14:44:20.850Z,71.78
2023-02-04T14:46:49.008Z,68.48
2023-02-04T14:49:16.605Z,67.37
2023-02-04T14:51:43.586Z,66.26
2023-02-04T14:54:10.411Z,65.77
2023-02-04T14:56:37.282Z,66.02
2023-02-04T14:59:04.306Z,65.35
2023-02-04T15:01:31.112Z,65.15
2023-02-04T15:03:58.358Z,65.29
2023-02-04T15:06:25.138Z,64.60
2023-02-04T15:08:52.359Z,64.79
2023-02-04T15:11:19.204Z,64.77
2023-02-04T15:13:45.922Z,63.88
2023-02-04T15:16:14.451Z,63.61
2023-02-04T15:18:41.615Z,62.92
2023-02-04T15:21:08.531Z,62.83
2023-02-04T15:23:35.295Z,63.14
2023-02-04T15:26:21.210Z,62.89
2023-02-04T15:29:06.958Z,61.92
2023-02-04T15:31:52.677Z,62.64
2023-02-04T15:34:40.776Z,62.70
2023-02-04T15:37:07.754Z,63.18
2023-02-04T15:39:34.515Z,63.25
2023-02-04T15:42:38.953Z,62.52
2023-02-04T15:45:06.579Z,63.71
2023-02-04T15:47:33.340Z,63.69
2023-02-04T15:50:00.100Z,62.40
2023-02-04T15:52:29.115Z,62.53
2023-02-04T15:54:55.963Z,62.49
2023-02-04T15:57:22.720Z,62.22
2023-02-04T15:59:49.464Z,62.08
2023-02-04T16:02:16.241Z,62.33
2023-02-04T16:04:45.266Z,62.16
2023-02-04T16:07:12.080Z,61.96
2023-02-04T16:09:39.222Z,62.22
2023-02-04T16:12:06.158Z,62.27
2023-02-04T16:14:32.937Z,61.94
2023-02-04T16:17:01.866Z,61.59
2023-02-04T16:19:29.191Z,61.48
2023-02-04T16:21:56.395Z,61.12
2023-02-04T16:24:23.287Z,60.75
2023-02-04T16:26:49.993Z,59.60
2023-02-04T16:29:17.457Z,60.10
2023-02-04T16:31:44.365Z,59.73
2023-02-04T16:34:11.146Z,60.28
2023-02-04T16:36:37.937Z,59.88
2023-02-04T16:39:04.696Z,60.22
2023-02-04T16:41:31.640Z,60.60
2023-02-04T16:43:59.798Z,60.67
2023-02-04T16:46:28.615Z,60.85
2023-02-04T16:48:55.462Z,61.49
2023-02-04T16:51:22.229Z,61.31
2023-02-04T16:53:50.449Z,61.69
2023-02-04T16:56:17.296Z,61.56
2023-02-04T16:58:44.049Z,61.49
2023-02-04T17:01:10.936Z,62.14
2023-02-04T17:03:37.671Z,61.61
2023-02-04T17:06:04.498Z,62.30
2023-02-04T17:08:31.547Z,62.36
2023-02-04T17:11:16.715Z,62.45
2023-02-04T17:13:43.528Z,62.24
2023-02-04T17:16:10.470Z,62.72
2023-02-04T17:18:37.318Z,62.95
2023-02-04T17:21:04.262Z,62.87
2023-02-04T17:23:31.498Z,62.63
2023-02-04T17:25:58.468Z,63.00
2023-02-04T17:28:26.283Z,63.49
2023-02-04T17:30:53.085Z,63.49
2023-02-04T17:33:19.903Z,63.48
2023-02-04T17:35:46.682Z,63.51
2023-02-04T17:38:13.415Z,63.94
2023-02-04T17:40:40.190Z,63.65
2023-02-04T17:43:07.669Z,63.80
2023-02-04T17:45:34.860Z,63.36
2023-02-04T17:48:02.384Z,63.43
2023-02-04T17:50:29.160Z,63.37
2023-02-04T17:52:56.109Z,61.86
2023-02-04T17:55:27.809Z,61.88
2023-02-04T17:57:55.165Z,61.70
2023-02-04T18:00:25.135Z,61.66
2023-02-04T18:02:52.748Z,61.35
2023-02-04T18:05:22.328Z,61.40
2023-02-04T18:08:10.567Z,60.70
2023-02-04T18:10:39.205Z,60.87
2023-02-04T18:13:25.712Z,60.92
2023-02-04T18:15:58.004Z,60.99
2023-02-04T18:18:32.329Z,61.23
2023-02-04T18:21:19.063Z,61.05
2023-02-04T18:23:46.557Z,61.64
2023-02-04T18:26:16.927Z,61.24
2023-02-04T18:28:46.446Z,61.73
2023-02-04T18:31:28.527Z,61.36
2023-02-04T18:33:56.524Z,61.76
2023-02-04T18:36:23.764Z,61.65
2023-02-04T18:38:50.548Z,61.45
2023-02-04T18:41:23.272Z,61.68
2023-02-04T18:44:02.229Z,61.45
2023-02-04T18:46:33.282Z,61.37
2023-02-04T18:49:10.594Z,61.28
2023-02-04T18:51:40.038Z,61.32
2023-02-04T18:54:36.932Z,61.24
2023-02-04T18:57:13.512Z,60.67
2023-02-04T18:59:41.282Z,60.95
2023-02-04T19:02:23.953Z,61.87
2023-02-04T19:04:51.354Z,62.06
2023-02-04T19:07:18.110Z,62.25
2023-02-04T19:09:44.834Z,62.00
2023-02-04T19:12:22.918Z,62.42
2023-02-04T19:14:49.737Z,63.58
2023-02-04T19:17:24.373Z,64.06
2023-02-04T19:19:59.690Z,65.16
2023-02-04T19:22:35.548Z,66.88
2023-02-04T19:25:32.805Z,68.33
2023-02-04T19:28:15.287Z,68.87
2023-02-04T19:30:47.376Z,71.38
2023-02-04T19:33:17.258Z,72.81
2023-02-04T19:35:45.160Z,73.30
2023-02-04T19:38:33.745Z,73.74
2023-02-04T19:41:00.454Z,74.33
2023-02-04T19:43:36.448Z,75.25
2023-02-04T19:46:20.203Z,76.39
2023-02-04T19:48:47.020Z,76.77
2023-02-04T19:51:21.191Z,77.27
2023-02-04T19:53:54.562Z,77.56
2023-02-04T19:56:41.470Z,75.96
2023-02-04T19:59:29.107Z,76.47
2023-02-04T20:02:28.451Z,77.85
2023-02-04T20:04:55.266Z,76.76
2023-02-04T20:07:27.364Z,76.62
2023-02-04T20:10:21.546Z,76.12
2023-02-04T20:12:50.381Z,76.33
2023-02-04T20:15:36.227Z,76.07
2023-02-04T20:18:12.487Z,78.50
2023-02-04T20:20:40.490Z,77.69
2023-02-04T20:23:28.964Z,77.66
2023-02-04T20:25:56.235Z,77.46
2023-02-04T20:28:45.945Z,76.66
2023-02-04T20:31:18.380Z,76.76
2023-02-04T20:33:49.138Z,76.52
2023-02-04T20:36:41.110Z,76.79
2023-02-04T20:39:49.623Z,77.54
2023-02-04T20:42:33.809Z,78.79
2023-02-04T20:45:15.204Z,79.27
2023-02-04T20:47:42.033Z,79.03
2023-02-04T20:50:38.402Z,79.56
2023-02-04T20:53:07.690Z,79.76
2023-02-04T20:55:34.781Z,80.18
2023-02-04T20:58:07.636Z,79.67
2023-02-04T21:00:35.085Z,79.14
2023-02-04T21:03:19.457Z,79.50
2023-02-04T21:05:47.785Z,77.72
2023-02-04T21:08:22.092Z,76.48
2023-02-04T21:10:48.859Z,76.31
2023-02-04T21:13:15.542Z,77.06
2023-02-04T21:15:42.297Z,77.94
2023-02-04T21:18:08.987Z,78.27
2023-02-04T21:20:37.160Z,77.32
2023-02-04T21:23:05.151Z,77.50
2023-02-04T21:25:32.503Z,77.30
2023-02-04T21:27:59.693Z,75.17
2023-02-04T21:30:30.279Z,74.78
2023-02-04T21:32:58.106Z,73.49
2023-02-04T21:35:25.078Z,73.84
2023-02-04T21:37:52.697Z,74.11
2023-02-04T21:40:23.843Z,74.80
2023-02-04T21:42:51.872Z,74.12
2023-02-04T21:45:19.687Z,74.23
2023-02-04T21:47:47.513Z,74.08
2023-02-04T21:50:15.757Z,75.09
2023-02-04T21:52:43.428Z,75.77
2023-02-04T21:55:12.457Z,75.97
2023-02-04T21:57:39.232Z,77.00
2023-02-04T22:00:07.531Z,77.59
2023-02-04T22:02:34.325Z,78.26
2023-02-04T22:05:01.049Z,78.16
2023-02-04T22:07:27.746Z,77.26
2023-02-04T22:09:54.578Z,77.48
2023-02-04T22:12:21.262Z,78.36
2023-02-04T22:15:06.687Z,79.35
2023-02-04T22:17:33.450Z,78.15
2023-02-04T22:20:00.246Z,78.66
2023-02-04T22:22:27.024Z,77.94
2023-02-04T22:24:54.044Z,77.91
2023-02-04T22:27:20.785Z,76.93
2023-02-04T22:29:47.630Z,78.65
2023-02-04T22:32:14.414Z,77.94
2023-02-04T22:34:41.167Z,78.07
2023-02-04T22:37:07.943Z,77.75
2023-02-04T22:39:34.776Z,77.83
2023-02-04T22:42:01.606Z,76.86
2023-02-04T22:44:28.371Z,78.28
2023-02-04T22:46:55.257Z,75.99
2023-02-04T22:49:22.162Z,74.89
2023-02-04T22:51:48.944Z,75.12
2023-02-04T22:54:15.705Z,74.84
2023-02-04T22:56:42.454Z,74.77
2023-02-04T22:59:09.279Z,73.78
2023-02-04T23:01:36.030Z,74.28
2023-02-04T23:04:03.072Z,74.00
2023-02-04T23:06:29.913Z,74.68
2023-02-04T23:08:56.732Z,74.03
2023-02-04T23:11:24.871Z,73.94
2023-02-04T23:16:36.001Z,74.16
2023-02-04T23:19:02.863Z,74.22
2023-02-04T23:21:29.745Z,74.04
2023-02-04T23:23:56.529Z,74.96
2023-02-04T23:26:23.316Z,75.32
2023-02-04T23:28:50.139Z,74.98
2023-02-04T23:31:16.973Z,74.96
2023-02-04T23:33:43.745Z,76.39
2023-02-04T23:36:10.731Z,75.75
2023-02-04T23:38:37.461Z,76.23
2023-02-04T23:41:04.260Z,77.43
2023-02-04T23:43:31.072Z,77.04
2023-02-04T23:46:00.017Z,77.00
2023-02-04T23:48:26.890Z,76.57
2023-02-04T23:50:56.985Z,77.65
2023-02-04T23:53:24.044Z,78.60
2023-02-04T23:55:51.583Z,79.46
2023-02-04T23:58:18.537Z,79.01
